sensor_id;sensor_type;location;lat;lon;timestamp;pressure;altitude;pressure_sealevel;temperature;humidity
59009;BME280;44794;42.652;23.318;2023-08-06T00:00:21;93278.88;;;17.82;100.00
59009;BME280;44794;42.652;23.318;2023-08-06T00:02:47;93266.06;;;17.72;100.00
59009;BME280;44794;42.652;23.318;2023-08-06T00:05:12;93299.84;;;17.96;100.00
59009;BME280;44794;42.652;23.318;2023-08-06T00:07:38;93311.66;;;17.86;100.00
59009;BME280;44794;42.652;23.318;2023-08-06T00:10:04;93303.78;;;17.86;100.00
59009;BME280;44794;42.652;23.318;2023-08-06T00:12:29;93290.09;;;17.90;100.00
59009;BME280;44794;42.652;23.318;2023-08-06T00:14:55;93279.59;;;17.90;100.00
59009;BME280;44794;42.652;23.318;2023-08-06T00:17:20;93267.00;;;17.86;100.00
59009;BME280;44794;42.652;23.318;2023-08-06T00:19:46;93252.28;;;17.91;100.00
59009;BME280;44794;42.652;23.318;2023-08-06T00:22:11;93269.09;;;17.90;100.00
59009;BME280;44794;42.652;23.318;2023-08-06T00:24:37;93275.06;;;17.84;100.00
59009;BME280;44794;42.652;23.318;2023-08-06T00:27:03;93281.91;;;17.79;100.00
59009;BME280;44794;42.652;23.318;2023-08-06T00:29:28;93290.78;;;17.78;100.00
59009;BME280;44794;42.652;23.318;2023-08-06T00:31:53;93284.31;;;17.80;100.00
59009;BME280;44794;42.652;23.318;2023-08-06T00:34:19;93274.81;;;17.79;100.00
59009;BME280;44794;42.652;23.318;2023-08-06T00:36:44;93273.63;;;17.82;100.00
59009;BME280;44794;42.652;23.318;2023-08-06T00:39:10;93269.88;;;17.91;100.00
59009;BME280;44794;42.652;23.318;2023-08-06T00:41:35;93254.56;;;17.94;100.00
59009;BME280;44794;42.652;23.318;2023-08-06T00:44:01;93247.19;;;18.04;100.00
59009;BME280;44794;42.652;23.318;2023-08-06T00:46:27;93228.03;;;18.10;100.00
59009;BME280;44794;42.652;23.318;2023-08-06T00:48:52;93234.91;;;18.11;100.00
59009;BME280;44794;42.652;23.318;2023-08-06T00:51:19;93248.34;;;18.02;100.00
59009;BME280;44794;42.652;23.318;2023-08-06T00:53:44;93241.28;;;18.02;100.00
59009;BME280;44794;42.652;23.318;2023-08-06T00:56:10;93248.50;;;17.94;100.00
59009;BME280;44794;42.652;23.318;2023-08-06T00:58:36;93254.56;;;17.94;100.00
59009;BME280;44794;42.652;23.318;2023-08-06T01:01:02;93260.56;;;17.88;100.00
59009;BME280;44794;42.652;23.318;2023-08-06T01:03:28;93253.50;;;17.89;100.00
59009;BME280;44794;42.652;23.318;2023-08-06T01:05:53;93238.56;;;17.89;100.00
59009;BME280;44794;42.652;23.318;2023-08-06T01:08:40;93222.59;;;17.91;100.00
59009;BME280;44794;42.652;23.318;2023-08-06T01:11:57;93214.91;;;17.89;100.00
59009;BME280;44794;42.652;23.318;2023-08-06T01:14:15;93232.16;;;17.98;100.00
59009;BME280;44794;42.652;23.318;2023-08-06T01:16:43;93223.97;;;18.08;100.00
59009;BME280;44794;42.652;23.318;2023-08-06T01:19:18;93208.38;;;18.06;100.00
59009;BME280;44794;42.652;23.318;2023-08-06T01:21:44;93220.06;;;18.04;100.00
59009;BME280;44794;42.652;23.318;2023-08-06T01:24:09;93208.13;;;18.01;100.00
59009;BME280;44794;42.652;23.318;2023-08-06T01:26:45;93211.88;;;18.13;100.00
59009;BME280;44794;42.652;23.318;2023-08-06T01:29:39;93207.59;;;18.12;100.00
59009;BME280;44794;42.652;23.318;2023-08-06T01:32:08;93209.38;;;18.05;100.00
59009;BME280;44794;42.652;23.318;2023-08-06T01:34:37;93213.59;;;18.00;100.00
59009;BME280;44794;42.652;23.318;2023-08-06T01:37:04;93218.72;;;18.08;100.00
59009;BME280;44794;42.652;23.318;2023-08-06T01:39:33;93207.00;;;18.10;100.00
59009;BME280;44794;42.652;23.318;2023-08-06T01:41:58;93195.09;;;18.14;100.00
59009;BME280;44794;42.652;23.318;2023-08-06T01:44:23;93198.34;;;18.16;100.00
59009;BME280;44794;42.652;23.318;2023-08-06T01:46:49;93194.03;;;18.08;100.00
59009;BME280;44794;42.652;23.318;2023-08-06T01:49:14;93204.75;;;18.07;100.00
59009;BME280;44794;42.652;23.318;2023-08-06T01:51:40;93208.78;;;18.03;100.00
59009;BME280;44794;42.652;23.318;2023-08-06T01:54:05;93217.66;;;18.02;100.00
59009;BME280;44794;42.652;23.318;2023-08-06T01:56:30;93210.34;;;17.98;100.00
59009;BME280;44794;42.652;23.318;2023-08-06T01:58:56;93216.22;;;18.00;100.00
59009;BME280;44794;42.652;23.318;2023-08-06T02:01:21;93203.25;;;17.98;100.00
59009;BME280;44794;42.652;23.318;2023-08-06T02:03:46;93198.19;;;17.97;100.00
59009;BME280;44794;42.652;23.318;2023-08-06T02:06:12;93191.38;;;18.02;100.00
59009;BME280;44794;42.652;23.318;2023-08-06T02:08:37;93190.25;;;18.11;100.00
59009;BME280;44794;42.652;23.318;2023-08-06T02:11:03;93186.41;;;18.13;100.00
59009;BME280;44794;42.652;23.318;2023-08-06T02:13:29;93192.03;;;18.10;100.00
59009;BME280;44794;42.652;23.318;2023-08-06T02:15:54;93201.59;;;18.18;100.00
59009;BME280;44794;42.652;23.318;2023-08-06T02:18:20;93207.94;;;18.23;100.00
59009;BME280;44794;42.652;23.318;2023-08-06T02:20:55;93224.13;;;18.27;100.00
59009;BME280;44794;42.652;23.318;2023-08-06T02:23:21;93234.06;;;18.31;100.00
59009;BME280;44794;42.652;23.318;2023-08-06T02:25:47;93226.19;;;18.31;100.00
59009;BME280;44794;42.652;23.318;2023-08-06T02:28:12;93196.41;;;18.24;100.00
59009;BME280;44794;42.652;23.318;2023-08-06T02:30:37;93206.38;;;18.08;100.00
59009;BME280;44794;42.652;23.318;2023-08-06T02:33:03;93205.66;;;17.93;100.00
59009;BME280;44794;42.652;23.318;2023-08-06T02:35:28;93185.03;;;17.90;100.00
59009;BME280;44794;42.652;23.318;2023-08-06T02:37:53;93199.28;;;17.81;100.00
59009;BME280;44794;42.652;23.318;2023-08-06T02:40:19;93214.84;;;17.83;100.00
59009;BME280;44794;42.652;23.318;2023-08-06T02:42:44;93224.00;;;17.87;100.00
59009;BME280;44794;42.652;23.318;2023-08-06T02:45:10;93217.72;;;17.88;100.00
59009;BME280;44794;42.652;23.318;2023-08-06T02:47:35;93198.03;;;17.77;100.00
59009;BME280;44794;42.652;23.318;2023-08-06T02:50:00;93188.13;;;17.73;100.00
59009;BME280;44794;42.652;23.318;2023-08-06T02:52:26;93159.41;;;17.71;100.00
59009;BME280;44794;42.652;23.318;2023-08-06T02:54:51;93157.03;;;17.76;100.00
59009;BME280;44794;42.652;23.318;2023-08-06T02:57:17;93159.84;;;17.75;100.00
59009;BME280;44794;42.652;23.318;2023-08-06T02:59:42;93142.72;;;17.79;100.00
59009;BME280;44794;42.652;23.318;2023-08-06T03:02:07;93152.25;;;17.86;100.00
59009;BME280;44794;42.652;23.318;2023-08-06T03:04:33;93148.50;;;17.95;100.00
59009;BME280;44794;42.652;23.318;2023-08-06T03:06:58;93123.22;;;17.94;100.00
59009;BME280;44794;42.652;23.318;2023-08-06T03:09:23;93114.34;;;17.95;100.00
59009;BME280;44794;42.652;23.318;2023-08-06T03:11:49;93134.22;;;18.04;100.00
59009;BME280;44794;42.652;23.318;2023-08-06T03:14:14;93139.06;;;18.07;100.00
59009;BME280;44794;42.652;23.318;2023-08-06T03:16:40;93135.06;;;18.11;100.00
59009;BME280;44794;42.652;23.318;2023-08-06T03:19:05;93114.66;;;18.13;100.00
59009;BME280;44794;42.652;23.318;2023-08-06T03:21:30;93092.56;;;18.01;100.00
59009;BME280;44794;42.652;23.318;2023-08-06T03:23:56;93102.44;;;17.99;100.00
59009;BME280;44794;42.652;23.318;2023-08-06T03:26:21;93123.28;;;18.01;100.00
59009;BME280;44794;42.652;23.318;2023-08-06T03:28:46;93140.69;;;18.08;100.00
59009;BME280;44794;42.652;23.318;2023-08-06T03:31:12;93158.47;;;18.06;100.00
59009;BME280;44794;42.652;23.318;2023-08-06T03:33:38;93161.72;;;18.08;100.00
59009;BME280;44794;42.652;23.318;2023-08-06T03:36:04;93158.88;;;18.09;100.00
59009;BME280;44794;42.652;23.318;2023-08-06T03:38:29;93152.19;;;18.07;100.00
59009;BME280;44794;42.652;23.318;2023-08-06T03:40:54;93154.81;;;18.01;100.00
59009;BME280;44794;42.652;23.318;2023-08-06T03:43:20;93165.31;;;18.01;100.00
59009;BME280;44794;42.652;23.318;2023-08-06T03:45:45;93165.03;;;17.96;100.00
59009;BME280;44794;42.652;23.318;2023-08-06T03:48:11;93148.72;;;18.00;100.00
59009;BME280;44794;42.652;23.318;2023-08-06T03:50:36;93164.06;;;17.97;100.00
59009;BME280;44794;42.652;23.318;2023-08-06T03:53:02;93174.22;;;18.06;100.00
59009;BME280;44794;42.652;23.318;2023-08-06T03:55:27;93173.84;;;18.09;100.00
59009;BME280;44794;42.652;23.318;2023-08-06T03:57:52;93175.13;;;18.19;100.00
59009;BME280;44794;42.652;23.318;2023-08-06T04:00:18;93173.59;;;18.25;100.00
59009;BME280;44794;42.652;23.318;2023-08-06T04:02:44;93178.44;;;18.28;100.00
59009;BME280;44794;42.652;23.318;2023-08-06T04:05:10;93189.94;;;18.20;100.00
59009;BME280;44794;42.652;23.318;2023-08-06T04:07:35;93194.09;;;18.15;100.00
59009;BME280;44794;42.652;23.318;2023-08-06T04:10:04;93194.91;;;18.15;100.00
59009;BME280;44794;42.652;23.318;2023-08-06T04:12:31;93201.34;;;18.13;100.00
59009;BME280;44794;42.652;23.318;2023-08-06T04:14:58;93196.53;;;18.16;100.00
59009;BME280;44794;42.652;23.318;2023-08-06T04:17:24;93195.28;;;18.12;100.00
59009;BME280;44794;42.652;23.318;2023-08-06T04:19:54;93197.28;;;18.10;100.00
59009;BME280;44794;42.652;23.318;2023-08-06T04:22:20;93200.59;;;18.19;100.00
59009;BME280;44794;42.652;23.318;2023-08-06T04:24:46;93197.25;;;18.25;100.00
59009;BME280;44794;42.652;23.318;2023-08-06T04:27:13;93189.38;;;18.25;100.00
59009;BME280;44794;42.652;23.318;2023-08-06T04:29:39;93192.88;;;18.38;100.00
59009;BME280;44794;42.652;23.318;2023-08-06T04:32:09;93199.13;;;18.37;100.00
59009;BME280;44794;42.652;23.318;2023-08-06T04:34:35;93192.44;;;18.35;100.00
59009;BME280;44794;42.652;23.318;2023-08-06T04:37:01;93191.66;;;18.41;100.00
59009;BME280;44794;42.652;23.318;2023-08-06T04:39:26;93176.16;;;18.52;100.00
59009;BME280;44794;42.652;23.318;2023-08-06T04:41:52;93181.41;;;18.46;100.00
59009;BME280;44794;42.652;23.318;2023-08-06T04:44:17;93177.16;;;18.45;100.00
59009;BME280;44794;42.652;23.318;2023-08-06T04:46:43;93173.59;;;18.59;100.00
59009;BME280;44794;42.652;23.318;2023-08-06T04:49:08;93160.09;;;18.75;100.00
59009;BME280;44794;42.652;23.318;2023-08-06T04:51:34;93158.50;;;18.80;100.00
59009;BME280;44794;42.652;23.318;2023-08-06T04:53:59;93159.91;;;18.83;100.00
59009;BME280;44794;42.652;23.318;2023-08-06T04:56:24;93162.38;;;18.84;100.00
59009;BME280;44794;42.652;23.318;2023-08-06T04:58:50;93161.16;;;18.86;100.00
59009;BME280;44794;42.652;23.318;2023-08-06T05:01:16;93146.63;;;19.03;100.00
59009;BME280;44794;42.652;23.318;2023-08-06T05:03:41;93148.13;;;19.25;100.00
59009;BME280;44794;42.652;23.318;2023-08-06T05:06:07;93154.66;;;19.42;100.00
59009;BME280;44794;42.652;23.318;2023-08-06T05:08:32;93163.84;;;19.85;100.00
59009;BME280;44794;42.652;23.318;2023-08-06T05:10:58;93177.00;;;20.30;100.00
59009;BME280;44794;42.652;23.318;2023-08-06T05:13:23;93202.72;;;20.60;100.00
59009;BME280;44794;42.652;23.318;2023-08-06T05:15:49;93229.09;;;20.80;100.00
59009;BME280;44794;42.652;23.318;2023-08-06T05:18:14;93247.16;;;20.83;100.00
59009;BME280;44794;42.652;23.318;2023-08-06T05:20:41;93237.75;;;21.06;100.00
59009;BME280;44794;42.652;23.318;2023-08-06T05:23:06;93252.72;;;21.25;100.00
59009;BME280;44794;42.652;23.318;2023-08-06T05:25:32;93253.13;;;21.22;100.00
59009;BME280;44794;42.652;23.318;2023-08-06T05:27:59;93258.00;;;21.25;100.00
59009;BME280;44794;42.652;23.318;2023-08-06T05:30:26;93255.59;;;22.04;100.00
59009;BME280;44794;42.652;23.318;2023-08-06T05:32:52;93252.19;;;21.60;100.00
59009;BME280;44794;42.652;23.318;2023-08-06T05:35:17;93242.50;;;21.35;100.00
59009;BME280;44794;42.652;23.318;2023-08-06T05:37:42;93230.38;;;21.21;100.00
59009;BME280;44794;42.652;23.318;2023-08-06T05:40:09;93244.47;;;21.59;100.00
59009;BME280;44794;42.652;23.318;2023-08-06T05:42:35;93250.06;;;22.06;100.00
59009;BME280;44794;42.652;23.318;2023-08-06T05:45:00;93259.84;;;22.05;100.00
59009;BME280;44794;42.652;23.318;2023-08-06T05:47:25;93249.00;;;21.83;100.00
59009;BME280;44794;42.652;23.318;2023-08-06T05:49:51;93265.47;;;21.85;100.00
59009;BME280;44794;42.652;23.318;2023-08-06T05:52:16;93283.69;;;22.85;100.00
59009;BME280;44794;42.652;23.318;2023-08-06T05:54:42;93318.06;;;23.87;98.29
59009;BME280;44794;42.652;23.318;2023-08-06T05:57:07;93321.28;;;24.66;94.27
59009;BME280;44794;42.652;23.318;2023-08-06T05:59:32;93326.56;;;25.29;89.08
59009;BME280;44794;42.652;23.318;2023-08-06T06:01:58;93337.06;;;25.82;85.30
59009;BME280;44794;42.652;23.318;2023-08-06T06:04:24;93340.56;;;26.10;78.46
59009;BME280;44794;42.652;23.318;2023-08-06T06:06:49;93340.03;;;26.63;76.25
59009;BME280;44794;42.652;23.318;2023-08-06T06:09:15;93349.50;;;27.15;73.54
59009;BME280;44794;42.652;23.318;2023-08-06T06:11:40;93358.19;;;26.94;67.38
59009;BME280;44794;42.652;23.318;2023-08-06T06:14:07;93356.69;;;26.70;72.55
59009;BME280;44794;42.652;23.318;2023-08-06T06:16:33;93377.53;;;28.05;61.61
59009;BME280;44794;42.652;23.318;2023-08-06T06:18:58;93386.47;;;27.94;60.30
59009;BME280;44794;42.652;23.318;2023-08-06T06:21:24;93381.09;;;27.39;62.50
59009;BME280;44794;42.652;23.318;2023-08-06T06:23:49;93380.53;;;26.93;64.12
59009;BME280;44794;42.652;23.318;2023-08-06T06:26:17;93380.91;;;27.13;62.83
59009;BME280;44794;42.652;23.318;2023-08-06T06:28:42;93393.41;;;27.95;58.23
59009;BME280;44794;42.652;23.318;2023-08-06T06:31:08;93389.81;;;27.35;59.62
59009;BME280;44794;42.652;23.318;2023-08-06T06:33:34;93367.72;;;25.50;66.76
59009;BME280;44794;42.652;23.318;2023-08-06T06:36:00;93376.16;;;24.95;73.99
59009;BME280;44794;42.652;23.318;2023-08-06T06:38:25;93380.94;;;24.52;75.89
59009;BME280;44794;42.652;23.318;2023-08-06T06:40:55;93386.91;;;25.63;69.92
59009;BME280;44794;42.652;23.318;2023-08-06T06:43:20;93394.78;;;25.47;70.89
59009;BME280;44794;42.652;23.318;2023-08-06T06:45:46;93403.44;;;25.88;67.29
59009;BME280;44794;42.652;23.318;2023-08-06T06:48:11;93405.44;;;24.65;72.32
59009;BME280;44794;42.652;23.318;2023-08-06T06:50:37;93397.28;;;23.59;82.67
59009;BME280;44794;42.652;23.318;2023-08-06T06:53:04;93390.31;;;22.37;91.06
59009;BME280;44794;42.652;23.318;2023-08-06T06:55:29;93390.22;;;22.06;98.34
59009;BME280;44794;42.652;23.318;2023-08-06T06:57:55;93405.59;;;22.28;98.23
59009;BME280;44794;42.652;23.318;2023-08-06T07:00:20;93393.09;;;22.04;98.17
59009;BME280;44794;42.652;23.318;2023-08-06T07:02:45;93412.47;;;22.42;97.70
59009;BME280;44794;42.652;23.318;2023-08-06T07:05:11;93427.97;;;23.00;91.48
59009;BME280;44794;42.652;23.318;2023-08-06T07:07:36;93439.16;;;22.71;87.61
59009;BME280;44794;42.652;23.318;2023-08-06T07:10:02;93439.69;;;22.86;87.66
59009;BME280;44794;42.652;23.318;2023-08-06T07:12:28;93443.03;;;23.06;86.54
59009;BME280;44794;42.652;23.318;2023-08-06T07:14:53;93455.50;;;23.72;82.98
59009;BME280;44794;42.652;23.318;2023-08-06T07:17:19;93461.53;;;23.61;77.06
59009;BME280;44794;42.652;23.318;2023-08-06T07:19:44;93468.25;;;25.30;65.13
59009;BME280;44794;42.652;23.318;2023-08-06T07:22:09;93479.78;;;26.45;56.27
59009;BME280;44794;42.652;23.318;2023-08-06T07:24:35;93486.53;;;28.08;52.51
59009;BME280;44794;42.652;23.318;2023-08-06T07:27:00;93497.78;;;28.69;47.74
59009;BME280;44794;42.652;23.318;2023-08-06T07:29:26;93485.16;;;29.86;46.05
59009;BME280;44794;42.652;23.318;2023-08-06T07:31:51;93500.63;;;29.79;43.49
59009;BME280;44794;42.652;23.318;2023-08-06T07:34:17;93498.09;;;30.25;42.85
59009;BME280;44794;42.652;23.318;2023-08-06T07:36:46;93499.25;;;30.80;42.08
59009;BME280;44794;42.652;23.318;2023-08-06T07:39:11;93490.56;;;31.15;42.41
59009;BME280;44794;42.652;23.318;2023-08-06T07:41:37;93498.53;;;29.55;42.75
59009;BME280;44794;42.652;23.318;2023-08-06T07:44:02;93488.50;;;29.67;44.03
59009;BME280;44794;42.652;23.318;2023-08-06T07:46:28;93490.31;;;28.87;45.07
59009;BME280;44794;42.652;23.318;2023-08-06T07:48:53;93481.66;;;27.55;48.17
59009;BME280;44794;42.652;23.318;2023-08-06T07:51:19;93461.03;;;26.79;49.95
59009;BME280;44794;42.652;23.318;2023-08-06T07:53:45;93461.34;;;26.32;53.06
59009;BME280;44794;42.652;23.318;2023-08-06T07:56:10;93448.66;;;25.54;57.50
59009;BME280;44794;42.652;23.318;2023-08-06T07:58:36;93447.25;;;25.63;57.99
59009;BME280;44794;42.652;23.318;2023-08-06T08:01:01;93460.16;;;25.25;60.65
59009;BME280;44794;42.652;23.318;2023-08-06T08:03:26;93449.63;;;25.18;60.02
59009;BME280;44794;42.652;23.318;2023-08-06T08:05:54;93445.75;;;25.44;59.99
59009;BME280;44794;42.652;23.318;2023-08-06T08:08:23;93447.72;;;25.07;60.91
59009;BME280;44794;42.652;23.318;2023-08-06T08:10:48;93451.25;;;25.19;61.16
59009;BME280;44794;42.652;23.318;2023-08-06T08:13:14;93447.78;;;25.30;60.51
59009;BME280;44794;42.652;23.318;2023-08-06T08:15:39;93458.81;;;25.45;58.63
59009;BME280;44794;42.652;23.318;2023-08-06T08:18:04;93459.75;;;25.51;56.23
59009;BME280;44794;42.652;23.318;2023-08-06T08:20:30;93451.78;;;25.74;57.05
59009;BME280;44794;42.652;23.318;2023-08-06T08:23:00;93458.25;;;26.23;57.10
59009;BME280;44794;42.652;23.318;2023-08-06T08:25:26;93451.91;;;25.79;56.39
59009;BME280;44794;42.652;23.318;2023-08-06T08:27:53;93453.31;;;25.81;57.31
59009;BME280;44794;42.652;23.318;2023-08-06T08:30:18;93460.94;;;25.78;54.90
59009;BME280;44794;42.652;23.318;2023-08-06T08:32:43;93458.53;;;25.99;56.48
59009;BME280;44794;42.652;23.318;2023-08-06T08:35:09;93459.88;;;25.67;54.14
59009;BME280;44794;42.652;23.318;2023-08-06T08:37:35;93449.09;;;25.39;57.31
59009;BME280;44794;42.652;23.318;2023-08-06T08:40:01;93459.28;;;25.65;56.55
59009;BME280;44794;42.652;23.318;2023-08-06T08:42:28;93459.44;;;25.93;55.06
59009;BME280;44794;42.652;23.318;2023-08-06T08:44:54;93462.97;;;26.33;52.72
59009;BME280;44794;42.652;23.318;2023-08-06T08:47:20;93456.63;;;26.73;53.17
59009;BME280;44794;42.652;23.318;2023-08-06T08:49:46;93453.47;;;26.87;51.77
59009;BME280;44794;42.652;23.318;2023-08-06T08:52:15;93457.47;;;27.01;51.41
59009;BME280;44794;42.652;23.318;2023-08-06T08:54:43;93453.41;;;27.27;49.99
59009;BME280;44794;42.652;23.318;2023-08-06T08:57:09;93444.69;;;27.31;50.20
59009;BME280;44794;42.652;23.318;2023-08-06T08:59:35;93453.56;;;27.53;50.30
59009;BME280;44794;42.652;23.318;2023-08-06T09:02:01;93449.06;;;27.53;48.81
59009;BME280;44794;42.652;23.318;2023-08-06T09:04:29;93449.59;;;27.39;48.31
59009;BME280;44794;42.652;23.318;2023-08-06T09:06:58;93451.34;;;27.45;46.41
59009;BME280;44794;42.652;23.318;2023-08-06T09:09:31;93437.56;;;27.36;47.88
59009;BME280;44794;42.652;23.318;2023-08-06T09:12:00;93434.69;;;27.38;48.93
59009;BME280;44794;42.652;23.318;2023-08-06T09:14:29;93434.81;;;27.48;48.91
59009;BME280;44794;42.652;23.318;2023-08-06T09:16:54;93429.25;;;27.33;48.81
59009;BME280;44794;42.652;23.318;2023-08-06T09:19:20;93434.31;;;26.90;47.04
59009;BME280;44794;42.652;23.318;2023-08-06T09:21:46;93423.53;;;26.69;50.69
59009;BME280;44794;42.652;23.318;2023-08-06T09:24:14;93419.81;;;26.70;49.62
59009;BME280;44794;42.652;23.318;2023-08-06T09:26:43;93422.00;;;26.34;49.44
59009;BME280;44794;42.652;23.318;2023-08-06T09:29:10;93421.72;;;26.58;49.16
59009;BME280;44794;42.652;23.318;2023-08-06T09:31:45;93410.97;;;26.81;50.66
59009;BME280;44794;42.652;23.318;2023-08-06T09:34:23;93409.59;;;26.78;49.74
59009;BME280;44794;42.652;23.318;2023-08-06T09:36:50;93405.28;;;27.05;48.41
59009;BME280;44794;42.652;23.318;2023-08-06T09:39:26;93397.13;;;26.95;48.75
59009;BME280;44794;42.652;23.318;2023-08-06T09:41:59;93395.28;;;26.84;48.68
59009;BME280;44794;42.652;23.318;2023-08-06T09:44:29;93402.09;;;26.75;48.70
59009;BME280;44794;42.652;23.318;2023-08-06T09:46:56;93405.81;;;26.91;48.42
59009;BME280;44794;42.652;23.318;2023-08-06T09:49:25;93412.16;;;26.46;48.85
59009;BME280;44794;42.652;23.318;2023-08-06T09:51:52;93417.84;;;26.38;47.97
59009;BME280;44794;42.652;23.318;2023-08-06T09:54:22;93419.22;;;26.29;48.55
59009;BME280;44794;42.652;23.318;2023-08-06T09:56:48;93418.88;;;26.25;49.89
59009;BME280;44794;42.652;23.318;2023-08-06T09:59:14;93400.44;;;25.84;50.60
59009;BME280;44794;42.652;23.318;2023-08-06T10:01:41;93418.22;;;26.07;49.58
59009;BME280;44794;42.652;23.318;2023-08-06T10:04:06;93406.09;;;25.88;50.36
59009;BME280;44794;42.652;23.318;2023-08-06T10:06:37;93417.78;;;25.87;50.56
59009;BME280;44794;42.652;23.318;2023-08-06T10:09:03;93424.13;;;25.97;50.56
59009;BME280;44794;42.652;23.318;2023-08-06T10:11:29;93420.06;;;25.72;50.87
59009;BME280;44794;42.652;23.318;2023-08-06T10:14:10;93418.25;;;25.61;50.29
59009;BME280;44794;42.652;23.318;2023-08-06T10:16:37;93425.91;;;25.92;50.97
59009;BME280;44794;42.652;23.318;2023-08-06T10:19:04;93423.09;;;26.10;49.48
59009;BME280;44794;42.652;23.318;2023-08-06T10:21:33;93426.53;;;26.22;49.90
59009;BME280;44794;42.652;23.318;2023-08-06T10:23:59;93419.66;;;26.49;49.12
59009;BME280;44794;42.652;23.318;2023-08-06T10:26:28;93415.09;;;27.00;48.21
59009;BME280;44794;42.652;23.318;2023-08-06T10:28:53;93429.03;;;27.35;46.80
59009;BME280;44794;42.652;23.318;2023-08-06T10:31:19;93429.88;;;27.24;47.35
59009;BME280;44794;42.652;23.318;2023-08-06T10:33:46;93438.56;;;26.75;45.42
59009;BME280;44794;42.652;23.318;2023-08-06T10:36:12;93442.56;;;26.50;46.14
59009;BME280;44794;42.652;23.318;2023-08-06T10:38:46;93440.78;;;26.04;47.15
59009;BME280;44794;42.652;23.318;2023-08-06T10:41:22;93439.50;;;25.61;48.53
59009;BME280;44794;42.652;23.318;2023-08-06T10:43:48;93449.09;;;25.39;49.59
59009;BME280;44794;42.652;23.318;2023-08-06T10:46:26;93454.31;;;25.57;50.52
59009;BME280;44794;42.652;23.318;2023-08-06T10:48:52;93439.31;;;25.74;49.93
59009;BME280;44794;42.652;23.318;2023-08-06T10:51:18;93451.91;;;25.79;50.42
59009;BME280;44794;42.652;23.318;2023-08-06T10:53:45;93453.63;;;25.50;51.41
59009;BME280;44794;42.652;23.318;2023-08-06T10:56:14;93453.38;;;25.40;51.01
59009;BME280;44794;42.652;23.318;2023-08-06T10:58:40;93456.72;;;25.47;50.55
59009;BME280;44794;42.652;23.318;2023-08-06T11:01:06;93463.66;;;25.37;49.72
59009;BME280;44794;42.652;23.318;2023-08-06T11:03:32;93470.25;;;25.34;50.63
59009;BME280;44794;42.652;23.318;2023-08-06T11:05:58;93478.34;;;25.39;49.40
59009;BME280;44794;42.652;23.318;2023-08-06T11:08:28;93465.63;;;25.41;49.64
59009;BME280;44794;42.652;23.318;2023-08-06T11:10:54;93467.47;;;25.52;49.73
59009;BME280;44794;42.652;23.318;2023-08-06T11:13:20;93465.91;;;25.97;49.50
59009;BME280;44794;42.652;23.318;2023-08-06T11:15:46;93457.69;;;26.10;49.07
59009;BME280;44794;42.652;23.318;2023-08-06T11:18:11;93455.81;;;25.53;50.71
59009;BME280;44794;42.652;23.318;2023-08-06T11:20:37;93465.44;;;25.13;54.18
59009;BME280;44794;42.652;23.318;2023-08-06T11:23:03;93462.53;;;23.60;65.55
59009;BME280;44794;42.652;23.318;2023-08-06T11:25:29;93466.84;;;23.06;71.70
59009;BME280;44794;42.652;23.318;2023-08-06T11:27:55;93478.63;;;22.79;66.86
59009;BME280;44794;42.652;23.318;2023-08-06T11:30:20;93457.47;;;22.73;67.88
59009;BME280;44794;42.652;23.318;2023-08-06T11:32:46;93463.47;;;22.05;64.61
59009;BME280;44794;42.652;23.318;2023-08-06T11:35:13;93468.81;;;21.92;68.29
59009;BME280;44794;42.652;23.318;2023-08-06T11:37:39;93459.25;;;21.85;74.56
59009;BME280;44794;42.652;23.318;2023-08-06T11:40:09;93462.78;;;21.08;79.53
59009;BME280;44794;42.652;23.318;2023-08-06T11:42:36;93452.22;;;20.82;82.07
59009;BME280;44794;42.652;23.318;2023-08-06T11:45:02;93450.38;;;20.89;82.44
59009;BME280;44794;42.652;23.318;2023-08-06T11:47:30;93452.22;;;21.15;79.22
59009;BME280;44794;42.652;23.318;2023-08-06T11:49:55;93439.19;;;21.52;82.04
59009;BME280;44794;42.652;23.318;2023-08-06T11:52:22;93447.25;;;21.83;81.87
59009;BME280;44794;42.652;23.318;2023-08-06T11:55:05;93445.53;;;22.14;82.37
59009;BME280;44794;42.652;23.318;2023-08-06T11:57:32;93447.28;;;22.39;77.90
59009;BME280;44794;42.652;23.318;2023-08-06T12:00:04;93448.22;;;22.51;74.59
59009;BME280;44794;42.652;23.318;2023-08-06T12:02:33;93444.38;;;22.84;75.15
59009;BME280;44794;42.652;23.318;2023-08-06T12:05:04;93453.28;;;23.21;67.27
59009;BME280;44794;42.652;23.318;2023-08-06T12:07:37;93456.28;;;23.31;65.44
59009;BME280;44794;42.652;23.318;2023-08-06T12:10:03;93460.06;;;23.41;67.40
59009;BME280;44794;42.652;23.318;2023-08-06T12:12:29;93445.63;;;23.61;65.33
59009;BME280;44794;42.652;23.318;2023-08-06T12:14:55;93436.41;;;23.64;67.88
59009;BME280;44794;42.652;23.318;2023-08-06T12:17:21;93439.22;;;23.69;65.47
59009;BME280;44794;42.652;23.318;2023-08-06T12:19:47;93442.63;;;23.76;64.99
59009;BME280;44794;42.652;23.318;2023-08-06T12:22:13;93435.38;;;23.89;62.93
59009;BME280;44794;42.652;23.318;2023-08-06T12:24:41;93437.22;;;24.07;64.00
59009;BME280;44794;42.652;23.318;2023-08-06T12:27:06;93438.88;;;24.37;64.14
59009;BME280;44794;42.652;23.318;2023-08-06T12:29:31;93441.09;;;24.58;59.71
59009;BME280;44794;42.652;23.318;2023-08-06T12:31:57;93451.97;;;24.68;59.91
59009;BME280;44794;42.652;23.318;2023-08-06T12:34:22;93449.97;;;24.63;59.79
59009;BME280;44794;42.652;23.318;2023-08-06T12:36:48;93456.44;;;24.56;57.73
59009;BME280;44794;42.652;23.318;2023-08-06T12:39:13;93456.91;;;24.64;59.29
59009;BME280;44794;42.652;23.318;2023-08-06T12:41:39;93453.28;;;24.77;57.41